sensor_id;sensor_type;location;lat;lon;timestamp;P1;durP1;ratioP1;P2;durP2;ratioP2
78848;SDS011;68197;41.864;21.942;2023-11-21T00:00:22;21.30;;;16.67;;
78848;SDS011;68197;41.864;21.942;2023-11-21T00:02:48;18.83;;;15.05;;
78848;SDS011;68197;41.864;21.942;2023-11-21T00:05:14;18.05;;;11.82;;
78848;SDS011;68197;41.864;21.942;2023-11-21T00:07:41;23.05;;;16.23;;
78848;SDS011;68197;41.864;21.942;2023-11-21T00:10:07;21.98;;;16.90;;
78848;SDS011;68197;41.864;21.942;2023-11-21T00:12:35;22.27;;;16.42;;
78848;SDS011;68197;41.864;21.942;2023-11-21T00:15:01;21.70;;;16.08;;
78848;SDS011;68197;41.864;21.942;2023-11-21T00:17:27;23.98;;;17.40;;
78848;SDS011;68197;41.864;21.942;2023-11-21T00:19:53;20.55;;;17.52;;
78848;SDS011;68197;41.864;21.942;2023-11-21T00:22:19;19.92;;;14.18;;
78848;SDS011;68197;41.864;21.942;2023-11-21T00:24:46;20.23;;;14.40;;
78848;SDS011;68197;41.864;21.942;2023-11-21T00:27:13;22.00;;;16.20;;
78848;SDS011;68197;41.864;21.942;2023-11-21T00:29:39;18.33;;;14.93;;
78848;SDS011;68197;41.864;21.942;2023-11-21T00:32:05;20.55;;;13.63;;
78848;SDS011;68197;41.864;21.942;2023-11-21T00:34:32;19.20;;;14.98;;
78848;SDS011;68197;41.864;21.942;2023-11-21T00:36:58;16.75;;;13.35;;
78848;SDS011;68197;41.864;21.942;2023-11-21T00:39:24;18.88;;;13.88;;
78848;SDS011;68197;41.864;21.942;2023-11-21T00:41:51;22.65;;;17.92;;
78848;SDS011;68197;41.864;21.942;2023-11-21T00:44:18;27.13;;;18.77;;
78848;SDS011;68197;41.864;21.942;2023-11-21T00:46:44;24.30;;;17.77;;
78848;SDS011;68197;41.864;21.942;2023-11-21T00:49:10;27.50;;;20.38;;
78848;SDS011;68197;41.864;21.942;2023-11-21T00:51:36;24.35;;;18.20;;
78848;SDS011;68197;41.864;21.942;2023-11-21T00:54:02;20.50;;;16.08;;
78848;SDS011;68197;41.864;21.942;2023-11-21T00:56:28;20.98;;;15.93;;
78848;SDS011;68197;41.864;21.942;2023-11-21T00:58:54;27.73;;;17.13;;
78848;SDS011;68197;41.864;21.942;2023-11-21T01:01:21;19.25;;;16.00;;
78848;SDS011;68197;41.864;21.942;2023-11-21T01:03:49;21.13;;;15.02;;
78848;SDS011;68197;41.864;21.942;2023-11-21T01:06:16;17.52;;;13.23;;
78848;SDS011;68197;41.864;21.942;2023-11-21T01:08:43;30.13;;;20.27;;
78848;SDS011;68197;41.864;21.942;2023-11-21T01:11:09;21.88;;;14.93;;
78848;SDS011;68197;41.864;21.942;2023-11-21T01:13:37;20.35;;;16.10;;
78848;SDS011;68197;41.864;21.942;2023-11-21T01:16:04;21.75;;;15.20;;
78848;SDS011;68197;41.864;21.942;2023-11-21T01:18:31;20.10;;;13.15;;
78848;SDS011;68197;41.864;21.942;2023-11-21T01:20:57;17.85;;;12.77;;
78848;SDS011;68197;41.864;21.942;2023-11-21T01:23:25;21.67;;;15.80;;
78848;SDS011;68197;41.864;21.942;2023-11-21T01:25:52;22.15;;;15.57;;
78848;SDS011;68197;41.864;21.942;2023-11-21T01:28:18;20.70;;;16.42;;
78848;SDS011;68197;41.864;21.942;2023-11-21T01:30:45;21.27;;;15.05;;
78848;SDS011;68197;41.864;21.942;2023-11-21T01:33:11;22.08;;;16.42;;
78848;SDS011;68197;41.864;21.942;2023-11-21T01:35:37;19.95;;;14.63;;
78848;SDS011;68197;41.864;21.942;2023-11-21T01:38:03;18.58;;;14.15;;
78848;SDS011;68197;41.864;21.942;2023-11-21T01:40:29;19.77;;;16.50;;
78848;SDS011;68197;41.864;21.942;2023-11-21T01:42:56;17.20;;;13.25;;
78848;SDS011;68197;41.864;21.942;2023-11-21T01:45:23;21.77;;;14.82;;
78848;SDS011;68197;41.864;21.942;2023-11-21T01:47:50;26.63;;;17.73;;
78848;SDS011;68197;41.864;21.942;2023-11-21T01:50:16;24.48;;;17.27;;
78848;SDS011;68197;41.864;21.942;2023-11-21T01:52:44;19.75;;;15.25;;
78848;SDS011;68197;41.864;21.942;2023-11-21T01:55:10;16.20;;;9.93;;
78848;SDS011;68197;41.864;21.942;2023-11-21T01:57:39;15.13;;;11.55;;
78848;SDS011;68197;41.864;21.942;2023-11-21T02:00:06;13.38;;;10.57;;
78848;SDS011;68197;41.864;21.942;2023-11-21T02:02:44;13.88;;;11.73;;
78848;SDS011;68197;41.864;21.942;2023-11-21T02:05:11;13.57;;;11.38;;
78848;SDS011;68197;41.864;21.942;2023-11-21T02:07:40;15.63;;;11.40;;
78848;SDS011;68197;41.864;21.942;2023-11-21T02:10:10;15.50;;;12.02;;
78848;SDS011;68197;41.864;21.942;2023-11-21T02:12:40;13.13;;;11.50;;
78848;SDS011;68197;41.864;21.942;2023-11-21T02:15:07;12.80;;;9.00;;
78848;SDS011;68197;41.864;21.942;2023-11-21T02:17:37;16.40;;;12.05;;
78848;SDS011;68197;41.864;21.942;2023-11-21T02:20:03;15.00;;;12.82;;
78848;SDS011;68197;41.864;21.942;2023-11-21T02:22:32;16.30;;;11.70;;
78848;SDS011;68197;41.864;21.942;2023-11-21T02:25:00;14.45;;;12.93;;
78848;SDS011;68197;41.864;21.942;2023-11-21T02:27:27;15.35;;;13.45;;
78848;SDS011;68197;41.864;21.942;2023-11-21T02:29:54;16.63;;;12.70;;
78848;SDS011;68197;41.864;21.942;2023-11-21T02:32:20;16.88;;;14.52;;
78848;SDS011;68197;41.864;21.942;2023-11-21T02:34:48;17.50;;;13.45;;
78848;SDS011;68197;41.864;21.942;2023-11-21T02:37:15;19.45;;;14.82;;
78848;SDS011;68197;41.864;21.942;2023-11-21T02:39:41;22.40;;;16.15;;
78848;SDS011;68197;41.864;21.942;2023-11-21T02:42:07;20.45;;;16.00;;
78848;SDS011;68197;41.864;21.942;2023-11-21T02:44:33;23.48;;;17.42;;
78848;SDS011;68197;41.864;21.942;2023-11-21T02:46:59;23.40;;;15.80;;
78848;SDS011;68197;41.864;21.942;2023-11-21T02:49:26;17.30;;;14.20;;
78848;SDS011;68197;41.864;21.942;2023-11-21T02:51:55;14.27;;;11.48;;
78848;SDS011;68197;41.864;21.942;2023-11-21T02:54:22;14.50;;;11.65;;
78848;SDS011;68197;41.864;21.942;2023-11-21T02:56:48;17.00;;;10.70;;
78848;SDS011;68197;41.864;21.942;2023-11-21T02:59:15;14.20;;;11.50;;
78848;SDS011;68197;41.864;21.942;2023-11-21T03:01:41;16.65;;;13.00;;
78848;SDS011;68197;41.864;21.942;2023-11-21T03:04:07;13.65;;;12.20;;
78848;SDS011;68197;41.864;21.942;2023-11-21T03:06:33;13.27;;;11.25;;
78848;SDS011;68197;41.864;21.942;2023-11-21T03:09:00;12.32;;;10.07;;
78848;SDS011;68197;41.864;21.942;2023-11-21T03:11:26;16.48;;;13.50;;
78848;SDS011;68197;41.864;21.942;2023-11-21T03:13:52;16.58;;;13.52;;
78848;SDS011;68197;41.864;21.942;2023-11-21T03:16:18;18.00;;;13.73;;
78848;SDS011;68197;41.864;21.942;2023-11-21T03:18:44;20.98;;;15.25;;
78848;SDS011;68197;41.864;21.942;2023-11-21T03:21:10;19.63;;;12.30;;
78848;SDS011;68197;41.864;21.942;2023-11-21T03:23:37;19.15;;;14.57;;
78848;SDS011;68197;41.864;21.942;2023-11-21T03:26:03;17.45;;;12.35;;
78848;SDS011;68197;41.864;21.942;2023-11-21T03:28:30;17.98;;;10.95;;
78848;SDS011;68197;41.864;21.942;2023-11-21T03:30:57;13.63;;;10.75;;
78848;SDS011;68197;41.864;21.942;2023-11-21T03:33:23;15.65;;;11.57;;
78848;SDS011;68197;41.864;21.942;2023-11-21T03:35:49;16.55;;;13.40;;
78848;SDS011;68197;41.864;21.942;2023-11-21T03:38:15;18.27;;;16.02;;
78848;SDS011;68197;41.864;21.942;2023-11-21T03:40:41;15.48;;;13.88;;
78848;SDS011;68197;41.864;21.942;2023-11-21T03:43:08;16.15;;;10.45;;
78848;SDS011;68197;41.864;21.942;2023-11-21T03:45:34;19.40;;;15.60;;
78848;SDS011;68197;41.864;21.942;2023-11-21T03:48:00;21.33;;;16.25;;
78848;SDS011;68197;41.864;21.942;2023-11-21T03:50:28;20.85;;;15.68;;
78848;SDS011;68197;41.864;21.942;2023-11-21T03:52:54;22.75;;;16.90;;
78848;SDS011;68197;41.864;21.942;2023-11-21T03:55:20;23.25;;;15.27;;
78848;SDS011;68197;41.864;21.942;2023-11-21T03:57:46;27.40;;;18.75;;
78848;SDS011;68197;41.864;21.942;2023-11-21T04:00:12;32.45;;;22.60;;
78848;SDS011;68197;41.864;21.942;2023-11-21T04:02:39;35.13;;;22.75;;
78848;SDS011;68197;41.864;21.942;2023-11-21T04:05:05;25.25;;;20.25;;
78848;SDS011;68197;41.864;21.942;2023-11-21T04:07:32;21.98;;;16.98;;
78848;SDS011;68197;41.864;21.942;2023-11-21T04:09:59;20.15;;;15.23;;
78848;SDS011;68197;41.864;21.942;2023-11-21T04:12:25;14.85;;;11.15;;
78848;SDS011;68197;41.864;21.942;2023-11-21T04:14:51;15.27;;;11.65;;
78848;SDS011;68197;41.864;21.942;2023-11-21T04:17:18;16.17;;;11.77;;
78848;SDS011;68197;41.864;21.942;2023-11-21T04:19:44;14.82;;;10.77;;
78848;SDS011;68197;41.864;21.942;2023-11-21T04:22:11;14.75;;;11.60;;
78848;SDS011;68197;41.864;21.942;2023-11-21T04:24:37;15.05;;;11.50;;
78848;SDS011;68197;41.864;21.942;2023-11-21T04:27:03;11.98;;;10.35;;
78848;SDS011;68197;41.864;21.942;2023-11-21T04:29:30;13.73;;;11.15;;
78848;SDS011;68197;41.864;21.942;2023-11-21T04:31:56;18.73;;;12.10;;
78848;SDS011;68197;41.864;21.942;2023-11-21T04:34:22;21.05;;;12.27;;
78848;SDS011;68197;41.864;21.942;2023-11-21T04:36:49;18.58;;;11.82;;
78848;SDS011;68197;41.864;21.942;2023-11-21T04:39:15;29.88;;;18.17;;
78848;SDS011;68197;41.864;21.942;2023-11-21T04:41:41;49.55;;;26.17;;
78848;SDS011;68197;41.864;21.942;2023-11-21T04:44:07;66.47;;;31.88;;
78848;SDS011;68197;41.864;21.942;2023-11-21T04:46:34;14.52;;;11.25;;
78848;SDS011;68197;41.864;21.942;2023-11-21T04:49:00;15.57;;;11.70;;
78848;SDS011;68197;41.864;21.942;2023-11-21T04:51:26;16.35;;;11.73;;
78848;SDS011;68197;41.864;21.942;2023-11-21T04:53:52;23.70;;;14.10;;
78848;SDS011;68197;41.864;21.942;2023-11-21T04:56:18;17.50;;;12.40;;
78848;SDS011;68197;41.864;21.942;2023-11-21T04:58:44;17.52;;;11.68;;
78848;SDS011;68197;41.864;21.942;2023-11-21T05:01:11;16.35;;;12.30;;
78848;SDS011;68197;41.864;21.942;2023-11-21T05:03:37;16.67;;;12.73;;
78848;SDS011;68197;41.864;21.942;2023-11-21T05:06:04;22.00;;;15.02;;
78848;SDS011;68197;41.864;21.942;2023-11-21T05:08:30;24.98;;;17.60;;
78848;SDS011;68197;41.864;21.942;2023-11-21T05:10:56;27.23;;;19.25;;
78848;SDS011;68197;41.864;21.942;2023-11-21T05:13:22;27.55;;;21.40;;
78848;SDS011;68197;41.864;21.942;2023-11-21T05:15:53;23.90;;;18.67;;
78848;SDS011;68197;41.864;21.942;2023-11-21T05:18:19;23.73;;;17.08;;
78848;SDS011;68197;41.864;21.942;2023-11-21T05:20:45;21.88;;;14.80;;
78848;SDS011;68197;41.864;21.942;2023-11-21T05:23:12;21.13;;;15.32;;
78848;SDS011;68197;41.864;21.942;2023-11-21T05:25:38;21.92;;;15.52;;
78848;SDS011;68197;41.864;21.942;2023-11-21T05:28:06;19.20;;;13.00;;
78848;SDS011;68197;41.864;21.942;2023-11-21T05:30:32;25.52;;;18.38;;
78848;SDS011;68197;41.864;21.942;2023-11-21T05:32:58;26.08;;;17.85;;
78848;SDS011;68197;41.864;21.942;2023-11-21T05:35:24;24.17;;;17.17;;
78848;SDS011;68197;41.864;21.942;2023-11-21T05:37:51;30.48;;;20.20;;
78848;SDS011;68197;41.864;21.942;2023-11-21T05:40:17;28.27;;;20.80;;
78848;SDS011;68197;41.864;21.942;2023-11-21T05:42:44;26.30;;;20.13;;
78848;SDS011;68197;41.864;21.942;2023-11-21T05:45:10;24.25;;;18.67;;
78848;SDS011;68197;41.864;21.942;2023-11-21T05:47:37;21.40;;;16.17;;
78848;SDS011;68197;41.864;21.942;2023-11-21T05:50:04;28.10;;;21.00;;
78848;SDS011;68197;41.864;21.942;2023-11-21T05:52:31;33.42;;;23.05;;
78848;SDS011;68197;41.864;21.942;2023-11-21T05:55:00;34.85;;;24.17;;
78848;SDS011;68197;41.864;21.942;2023-11-21T05:57:26;32.13;;;20.58;;
78848;SDS011;68197;41.864;21.942;2023-11-21T05:59:52;30.23;;;19.98;;
78848;SDS011;68197;41.864;21.942;2023-11-21T06:02:18;18.67;;;14.63;;
78848;SDS011;68197;41.864;21.942;2023-11-21T06:04:44;21.58;;;15.95;;
78848;SDS011;68197;41.864;21.942;2023-11-21T06:07:10;18.17;;;11.82;;
78848;SDS011;68197;41.864;21.942;2023-11-21T06:09:37;26.80;;;19.90;;
78848;SDS011;68197;41.864;21.942;2023-11-21T06:12:03;28.08;;;20.73;;
78848;SDS011;68197;41.864;21.942;2023-11-21T06:14:29;29.85;;;21.08;;
78848;SDS011;68197;41.864;21.942;2023-11-21T06:16:55;39.63;;;26.63;;
78848;SDS011;68197;41.864;21.942;2023-11-21T06:19:22;38.85;;;25.63;;
78848;SDS011;68197;41.864;21.942;2023-11-21T06:21:48;45.25;;;32.03;;
78848;SDS011;68197;41.864;21.942;2023-11-21T06:24:15;53.42;;;30.80;;
78848;SDS011;68197;41.864;21.942;2023-11-21T06:26:42;37.38;;;28.45;;
78848;SDS011;68197;41.864;21.942;2023-11-21T06:29:09;33.75;;;22.35;;
78848;SDS011;68197;41.864;21.942;2023-11-21T06:31:36;34.10;;;21.83;;
78848;SDS011;68197;41.864;21.942;2023-11-21T06:34:02;21.67;;;16.20;;
78848;SDS011;68197;41.864;21.942;2023-11-21T06:36:29;32.60;;;20.77;;
78848;SDS011;68197;41.864;21.942;2023-11-21T06:38:55;33.33;;;25.05;;
78848;SDS011;68197;41.864;21.942;2023-11-21T06:41:21;33.28;;;24.95;;
78848;SDS011;68197;41.864;21.942;2023-11-21T06:43:48;35.42;;;27.48;;
78848;SDS011;68197;41.864;21.942;2023-11-21T06:46:14;34.03;;;22.77;;
78848;SDS011;68197;41.864;21.942;2023-11-21T06:48:44;25.65;;;20.67;;
78848;SDS011;68197;41.864;21.942;2023-11-21T06:51:10;22.30;;;18.13;;
78848;SDS011;68197;41.864;21.942;2023-11-21T06:53:36;20.55;;;16.50;;
78848;SDS011;68197;41.864;21.942;2023-11-21T06:56:03;24.95;;;19.95;;
78848;SDS011;68197;41.864;21.942;2023-11-21T06:58:29;25.48;;;16.02;;
78848;SDS011;68197;41.864;21.942;2023-11-21T07:00:55;23.23;;;18.55;;
78848;SDS011;68197;41.864;21.942;2023-11-21T07:03:23;24.92;;;17.50;;
78848;SDS011;68197;41.864;21.942;2023-11-21T07:05:50;26.38;;;19.55;;
78848;SDS011;68197;41.864;21.942;2023-11-21T07:08:16;28.45;;;22.15;;
78848;SDS011;68197;41.864;21.942;2023-11-21T07:10:42;32.05;;;20.35;;
78848;SDS011;68197;41.864;21.942;2023-11-21T07:13:08;38.45;;;26.77;;
78848;SDS011;68197;41.864;21.942;2023-11-21T07:15:37;31.17;;;21.38;;
78848;SDS011;68197;41.864;21.942;2023-11-21T07:18:03;32.97;;;23.80;;
78848;SDS011;68197;41.864;21.942;2023-11-21T07:20:32;31.70;;;24.20;;
78848;SDS011;68197;41.864;21.942;2023-11-21T07:22:59;35.92;;;25.92;;
78848;SDS011;68197;41.864;21.942;2023-11-21T07:25:26;31.83;;;21.35;;
78848;SDS011;68197;41.864;21.942;2023-11-21T07:27:52;32.60;;;25.60;;
78848;SDS011;68197;41.864;21.942;2023-11-21T07:30:20;35.90;;;26.42;;
78848;SDS011;68197;41.864;21.942;2023-11-21T07:32:47;29.75;;;23.90;;
78848;SDS011;68197;41.864;21.942;2023-11-21T07:35:14;120.85;;;75.15;;
78848;SDS011;68197;41.864;21.942;2023-11-21T07:37:40;63.22;;;44.95;;
78848;SDS011;68197;41.864;21.942;2023-11-21T07:40:06;33.53;;;24.35;;
78848;SDS011;68197;41.864;21.942;2023-11-21T07:42:34;26.80;;;22.23;;
78848;SDS011;68197;41.864;21.942;2023-11-21T07:45:00;34.42;;;24.30;;
78848;SDS011;68197;41.864;21.942;2023-11-21T07:47:27;39.30;;;26.10;;
78848;SDS011;68197;41.864;21.942;2023-11-21T07:49:53;30.50;;;22.08;;
78848;SDS011;68197;41.864;21.942;2023-11-21T07:52:21;35.13;;;23.92;;
78848;SDS011;68197;41.864;21.942;2023-11-21T07:54:47;39.22;;;26.52;;
78848;SDS011;68197;41.864;21.942;2023-11-21T07:57:14;39.03;;;28.17;;
78848;SDS011;68197;41.864;21.942;2023-11-21T07:59:40;43.88;;;30.38;;
78848;SDS011;68197;41.864;21.942;2023-11-21T08:02:06;33.33;;;25.42;;
78848;SDS011;68197;41.864;21.942;2023-11-21T08:04:33;35.38;;;24.80;;
78848;SDS011;68197;41.864;21.942;2023-11-21T08:07:00;31.50;;;22.45;;
78848;SDS011;68197;41.864;21.942;2023-11-21T08:09:27;33.08;;;24.38;;
78848;SDS011;68197;41.864;21.942;2023-11-21T08:11:53;30.40;;;20.85;;
78848;SDS011;68197;41.864;21.942;2023-11-21T08:14:19;27.77;;;20.40;;
78848;SDS011;68197;41.864;21.942;2023-11-21T08:16:45;41.47;;;26.48;;
78848;SDS011;68197;41.864;21.942;2023-11-21T08:19:12;32.88;;;26.27;;
78848;SDS011;68197;41.864;21.942;2023-11-21T08:21:38;34.63;;;24.42;;
78848;SDS011;68197;41.864;21.942;2023-11-21T08:24:08;31.75;;;23.55;;
78848;SDS011;68197;41.864;21.942;2023-11-21T08:26:36;37.17;;;27.00;;
78848;SDS011;68197;41.864;21.942;2023-11-21T08:29:02;56.03;;;39.38;;
78848;SDS011;68197;41.864;21.942;2023-11-21T08:31:32;42.13;;;32.53;;
78848;SDS011;68197;41.864;21.942;2023-11-21T08:33:58;52.15;;;39.92;;
78848;SDS011;68197;41.864;21.942;2023-11-21T08:36:26;42.20;;;29.77;;
78848;SDS011;68197;41.864;21.942;2023-11-21T08:38:53;31.95;;;24.10;;
78848;SDS011;68197;41.864;21.942;2023-11-21T08:41:19;32.28;;;23.65;;
78848;SDS011;68197;41.864;21.942;2023-11-21T08:43:51;38.40;;;25.73;;
78848;SDS011;68197;41.864;21.942;2023-11-21T08:46:19;37.05;;;25.73;;
78848;SDS011;68197;41.864;21.942;2023-11-21T08:48:45;45.97;;;29.90;;
78848;SDS011;68197;41.864;21.942;2023-11-21T08:51:11;42.85;;;31.90;;
78848;SDS011;68197;41.864;21.942;2023-11-21T08:53:37;44.85;;;32.08;;
78848;SDS011;68197;41.864;21.942;2023-11-21T08:56:04;39.33;;;27.80;;
78848;SDS011;68197;41.864;21.942;2023-11-21T08:58:31;40.15;;;27.10;;
78848;SDS011;68197;41.864;21.942;2023-11-21T09:00:57;30.67;;;23.77;;
78848;SDS011;68197;41.864;21.942;2023-11-21T09:03:23;26.25;;;19.52;;
78848;SDS011;68197;41.864;21.942;2023-11-21T09:05:50;23.25;;;17.38;;
78848;SDS011;68197;41.864;21.942;2023-11-21T09:08:16;27.55;;;19.60;;
78848;SDS011;68197;41.864;21.942;2023-11-21T09:10:42;25.92;;;18.00;;
78848;SDS011;68197;41.864;21.942;2023-11-21T09:13:12;39.58;;;26.88;;
78848;SDS011;68197;41.864;21.942;2023-11-21T09:15:38;27.42;;;19.67;;
78848;SDS011;68197;41.864;21.942;2023-11-21T09:18:05;34.33;;;22.25;;
78848;SDS011;68197;41.864;21.942;2023-11-21T09:20:31;31.45;;;22.02;;
78848;SDS011;68197;41.864;21.942;2023-11-21T09:22:57;38.17;;;25.75;;
78848;SDS011;68197;41.864;21.942;2023-11-21T09:25:23;93.82;;;68.15;;
78848;SDS011;68197;41.864;21.942;2023-11-21T09:27:50;103.75;;;77.75;;
78848;SDS011;68197;41.864;21.942;2023-11-21T09:30:16;39.42;;;29.70;;
78848;SDS011;68197;41.864;21.942;2023-11-21T09:32:42;28.48;;;22.02;;
78848;SDS011;68197;41.864;21.942;2023-11-21T09:35:10;25.25;;;17.35;;
78848;SDS011;68197;41.864;21.942;2023-11-21T09:37:38;20.63;;;16.45;;
78848;SDS011;68197;41.864;21.942;2023-11-21T09:40:05;23.67;;;17.10;;
78848;SDS011;68197;41.864;21.942;2023-11-21T09:42:40;32.78;;;22.50;;
78848;SDS011;68197;41.864;21.942;2023-11-21T09:45:23;39.38;;;24.95;;
78848;SDS011;68197;41.864;21.942;2023-11-21T09:47:52;36.88;;;22.83;;
78848;SDS011;68197;41.864;21.942;2023-11-21T09:55:27;26.08;;;18.48;;
78848;SDS011;68197;41.864;21.942;2023-11-21T09:57:55;42.65;;;24.88;;
78848;SDS011;68197;41.864;21.942;2023-11-21T10:00:22;21.48;;;14.35;;
78848;SDS011;68197;41.864;21.942;2023-11-21T10:02:49;24.90;;;16.95;;
78848;SDS011;68197;41.864;21.942;2023-11-21T10:05:15;35.10;;;21.13;;
78848;SDS011;68197;41.864;21.942;2023-11-21T10:07:45;21.70;;;16.88;;
78848;SDS011;68197;41.864;21.942;2023-11-21T10:10:12;30.83;;;19.65;;
78848;SDS011;68197;41.864;21.942;2023-11-21T10:12:39;26.13;;;20.35;;
78848;SDS011;68197;41.864;21.942;2023-11-21T10:15:07;34.88;;;24.55;;
78848;SDS011;68197;41.864;21.942;2023-11-21T10:17:35;27.83;;;17.33;;
78848;SDS011;68197;41.864;21.942;2023-11-21T10:20:08;53.40;;;33.42;;
78848;SDS011;68197;41.864;21.942;2023-11-21T10:22:38;22.85;;;16.92;;
78848;SDS011;68197;41.864;21.942;2023-11-21T10:25:06;28.10;;;18.83;;
78848;SDS011;68197;41.864;21.942;2023-11-21T10:27:35;24.25;;;16.85;;
78848;SDS011;68197;41.864;21.942;2023-11-21T10:30:02;26.27;;;17.85;;
78848;SDS011;68197;41.864;21.942;2023-11-21T10:32:29;23.98;;;19.02;;
78848;SDS011;68197;41.864;21.942;2023-11-21T10:34:58;24.02;;;18.67;;
78848;SDS011;68197;41.864;21.942;2023-11-21T10:37:35;25.13;;;19.48;;
78848;SDS011;68197;41.864;21.942;2023-11-21T10:40:01;30.23;;;21.83;;
78848;SDS011;68197;41.864;21.942;2023-11-21T10:42:31;293.85;;;225.55;;
78848;SDS011;68197;41.864;21.942;2023-11-21T10:44:57;265.35;;;98.25;;
78848;SDS011;68197;41.864;21.942;2023-11-21T10:47:24;35.28;;;25.80;;
78848;SDS011;68197;41.864;21.942;2023-11-21T10:49:51;21.90;;;17.10;;
78848;SDS011;68197;41.864;21.942;2023-11-21T10:52:20;35.88;;;21.52;;
78848;SDS011;68197;41.864;21.942;2023-11-21T10:54:47;25.27;;;19.52;;
78848;SDS011;68197;41.864;21.942;2023-11-21T10:57:17;31.40;;;24.80;;
78848;SDS011;68197;41.864;21.942;2023-11-21T10:59:46;27.92;;;23.30;;
78848;SDS011;68197;41.864;21.942;2023-11-21T11:02:20;27.77;;;22.58;;
78848;SDS011;68197;41.864;21.942;2023-11-21T11:04:48;27.70;;;22.05;;
78848;SDS011;68197;41.864;21.942;2023-11-21T11:07:14;28.20;;;21.50;;
78848;SDS011;68197;41.864;21.942;2023-11-21T11:09:41;31.20;;;22.13;;
78848;SDS011;68197;41.864;21.942;2023-11-21T11:12:09;29.00;;;23.13;;
78848;SDS011;68197;41.864;21.942;2023-11-21T11:14:35;31.55;;;22.02;;
78848;SDS011;68197;41.864;21.942;2023-11-21T11:17:02;27.17;;;20.00;;
78848;SDS011;68197;41.864;21.942;2023-11-21T11:19:30;36.88;;;24.65;;
78848;SDS011;68197;41.864;21.942;2023-11-21T11:27:15;32.20;;;26.52;;
78848;SDS011;68197;41.864;21.942;2023-11-21T11:32:20;32.92;;;23.80;;
78848;SDS011;68197;41.864;21.942;2023-11-21T11:35:00;52.60;;;41.85;;
78848;SDS011;68197;41.864;21.942;2023-11-21T11:37:27;121.55;;;88.40;;
78848;SDS011;68197;41.864;21.942;2023-11-21T11:39:54;32.58;;;25.55;;
78848;SDS011;68197;41.864;21.942;2023-11-21T11:42:20;24.58;;;19.52;;
78848;SDS011;68197;41.864;21.942;2023-11-21T11:44:49;26.98;;;19.65;;
78848;SDS011;68197;41.864;21.942;2023-11-21T11:47:25;23.30;;;18.67;;
78848;SDS011;68197;41.864;21.942;2023-11-21T11:50:09;28.35;;;19.20;;
78848;SDS011;68197;41.864;21.942;2023-11-21T11:52:47;20.23;;;12.95;;
78848;SDS011;68197;41.864;21.942;2023-11-21T11:55:16;20.95;;;11.55;;
78848;SDS011;68197;41.864;21.942;2023-11-21T11:57:49;17.52;;;11.93;;
78848;SDS011;68197;41.864;21.942;2023-11-21T12:02:59;15.82;;;10.15;;
78848;SDS011;68197;41.864;21.942;2023-11-21T12:05:30;16.73;;;11.25;;
78848;SDS011;68197;41.864;21.942;2023-11-21T12:08:02;24.50;;;15.30;;
78848;SDS011;68197;41.864;21.942;2023-11-21T12:10:29;44.35;;;29.05;;
78848;SDS011;68197;41.864;21.942;2023-11-21T12:12:56;37.72;;;25.50;;
78848;SDS011;68197;41.864;21.942;2023-11-21T12:15:23;25.35;;;17.23;;
78848;SDS011;68197;41.864;21.942;2023-11-21T12:17:50;66.72;;;43.13;;
78848;SDS011;68197;41.864;21.942;2023-11-21T12:20:20;25.27;;;19.27;;
78848;SDS011;68197;41.864;21.942;2023-11-21T12:22:47;23.33;;;16.23;;
78848;SDS011;68197;41.864;21.942;2023-11-21T12:25:14;25.55;;;18.38;;
78848;SDS011;68197;41.864;21.942;2023-11-21T12:27:44;25.45;;;17.77;;
78848;SDS011;68197;41.864;21.942;2023-11-21T12:30:11;18.38;;;14.05;;
78848;SDS011;68197;41.864;21.942;2023-11-21T12:32:42;30.13;;;20.73;;
78848;SDS011;68197;41.864;21.942;2023-11-21T12:35:09;16.92;;;12.68;;
78848;SDS011;68197;41.864;21.942;2023-11-21T12:37:41;23.23;;;17.77;;
78848;SDS011;68197;41.864;21.942;2023-11-21T12:42:46;14.57;;;11.82;;
78848;SDS011;68197;41.864;21.942;2023-11-21T12:47:43;19.63;;;16.40;;
78848;SDS011;68197;41.864;21.942;2023-11-21T12:50:09;13.57;;;9.75;;
78848;SDS011;68197;41.864;21.942;2023-11-21T12:52:43;20.33;;;13.05;;
78848;SDS011;68197;41.864;21.942;2023-11-21T12:55:19;24.60;;;18.40;;
78848;SDS011;68197;41.864;21.942;2023-11-21T12:57:51;29.15;;;16.92;;
78848;SDS011;68197;41.864;21.942;2023-11-21T13:00:20;29.40;;;22.73;;
78848;SDS011;68197;41.864;21.942;2023-11-21T13:02:55;27.77;;;19.42;;
78848;SDS011;68197;41.864;21.942;2023-11-21T13:07:51;23.00;;;17.80;;
78848;SDS011;68197;41.864;21.942;2023-11-21T13:10:19;22.20;;;15.85;;
78848;SDS011;68197;41.864;21.942;2023-11-21T13:12:51;34.30;;;21.33;;
78848;SDS011;68197;41.864;21.942;2023-11-21T13:15:17;42.15;;;23.35;;
78848;SDS011;68197;41.864;21.942;2023-11-21T13:17:43;35.00;;;21.80;;
78848;SDS011;68197;41.864;21.942;2023-11-21T13:20:10;34.88;;;22.98;;
78848;SDS011;68197;41.864;21.942;2023-11-21T13:22:51;38.83;;;25.10;;
78848;SDS011;68197;41.864;21.942;2023-11-21T13:25:27;34.83;;;22.77;;
78848;SDS011;68197;41.864;21.942;2023-11-21T13:27:57;23.95;;;18.30;;
78848;SDS011;68197;41.864;21.942;2023-11-21T13:30:26;179.43;;;78.10;;
78848;SDS011;68197;41.864;21.942;2023-11-21T13:33:01;117.72;;;60.90;;
78848;SDS011;68197;41.864;21.942;2023-11-21T13:35:30;100.93;;;62.58;;
78848;SDS011;68197;41.864;21.942;2023-11-21T13:38:10;80.75;;;50.85;;
78848;SDS011;68197;41.864;21.942;2023-11-21T13:40:37;49.88;;;31.85;;
78848;SDS011;68197;41.864;21.942;2023-11-21T13:43:15;45.75;;;28.10;;
78848;SDS011;68197;41.864;21.942;2023-11-21T13:45:42;48.95;;;30.58;;
78848;SDS011;68197;41.864;21.942;2023-11-21T13:48:09;98.35;;;64.20;;
78848;SDS011;68197;41.864;21.942;2023-11-21T13:50:35;89.68;;;56.88;;
78848;SDS011;68197;41.864;21.942;2023-11-21T13:53:02;46.05;;;28.02;;
78848;SDS011;68197;41.864;21.942;2023-11-21T13:55:47;52.65;;;34.63;;
78848;SDS011;68197;41.864;21.942;2023-11-21T13:58:14;40.67;;;30.98;;
78848;SDS011;68197;41.864;21.942;2023-11-21T14:00:49;32.42;;;23.45;;
78848;SDS011;68197;41.864;21.942;2023-11-21T14:03:22;40.10;;;27.40;;
78848;SDS011;68197;41.864;21.942;2023-11-21T14:06:03;39.25;;;25.08;;
78848;SDS011;68197;41.864;21.942;2023-11-21T14:08:39;67.22;;;42.15;;
78848;SDS011;68197;41.864;21.942;2023-11-21T14:11:05;74.95;;;45.83;;
78848;SDS011;68197;41.864;21.942;2023-11-21T14:13:32;83.22;;;50.17;;
78848;SDS011;68197;41.864;21.942;2023-11-21T14:15:58;77.00;;;52.72;;
78848;SDS011;68197;41.864;21.942;2023-11-21T14:18:26;96.00;;;60.45;;
78848;SDS011;68197;41.864;21.942;2023-11-21T14:20:59;68.63;;;48.63;;
78848;SDS011;68197;41.864;21.942;2023-11-21T14:23:25;73.18;;;50.83;;
78848;SDS011;68197;41.864;21.942;2023-11-21T14:25:51;285.48;;;196.57;;
78848;SDS011;68197;41.864;21.942;2023-11-21T14:28:18;455.08;;;345.85;;
78848;SDS011;68197;41.864;21.942;2023-11-21T14:30:45;599.38;;;286.45;;
78848;SDS011;68197;41.864;21.942;2023-11-21T14:33:11;379.15;;;170.80;;